Time;durP1;ratioP1;P1;durP2;ratioP2;P2;SDS_P1;SDS_P2;PMS_P1;PMS_P2;Temp;Humidity;BMP_temperature;BMP_pressure;BME280_temperature;BME280_humidity;BME280_pressure;Samples;Min_cycle;Max_cycle;Signal;HPM_P1;HPM_P2
2024/03/11 00:02:07;;;;;;;15.15;9.32;;;9.30;99.90;;;;;;2602326;54;20896;31
2024/03/11 00:04:54;;;;;;;;;;;9.30;99.90;;;;;;2602478;54;20033;31
2024/03/11 00:07:36;;;;;;;14.20;8.60;;;9.30;99.90;;;;;;2602318;54;19934;31
2024/03/11 00:10:16;;;;;;;16.08;8.82;;;9.30;99.90;;;;;;2602412;54;20861;31
2024/03/11 00:12:53;;;;;;;16.80;8.80;;;9.30;99.90;;;;;;2620726;46;20032;31
2024/03/11 00:15:29;;;;;;;17.33;8.90;;;9.30;99.90;;;;;;2602203;54;20089;31
2024/03/11 00:18:04;;;;;;;14.47;9.23;;;9.30;99.90;;;;;;2620721;46;20026;31
2024/03/11 00:20:41;;;;;;;13.45;8.40;;;9.30;99.90;;;;;;2620770;46;20034;31
2024/03/11 00:23:20;;;;;;;16.50;9.75;;;9.30;99.90;;;;;;2602369;54;20046;31
2024/03/11 00:25:58;;;;;;;14.05;8.88;;;9.40;99.90;;;;;;2602471;54;20038;31
2024/03/11 00:28:33;;;;;;;16.75;9.50;;;9.40;99.90;;;;;;2602527;54;20843;31
2024/03/11 00:31:08;;;;;;;15.27;8.95;;;9.40;99.90;;;;;;2602249;54;20939;31
2024/03/11 00:33:43;;;;;;;16.33;8.93;;;9.40;99.90;;;;;;2602149;54;20082;31
2024/03/11 00:36:18;;;;;;;13.80;8.10;;;9.40;99.90;;;;;;2602442;54;20899;31
2024/03/11 00:38:56;;;;;;;12.77;7.65;;;9.40;99.90;;;;;;2602336;54;20884;31
2024/03/11 00:41:32;;;;;;;15.23;8.50;;;9.40;99.90;;;;;;2602175;54;20081;31
2024/03/11 00:44:07;;;;;;;15.43;8.18;;;9.40;99.90;;;;;;2602288;54;20438;31
2024/03/11 00:46:43;;;;;;;14.00;8.35;;;9.40;99.90;;;;;;2601235;54;20860;31
2024/03/11 00:49:19;;;;;;;13.90;9.05;;;9.40;99.90;;;;;;2601797;54;20076;31
2024/03/11 00:51:57;;;;;;;15.45;8.00;;;9.50;99.90;;;;;;2602887;54;20935;31
2024/03/11 00:54:35;;;;;;;13.60;7.70;;;9.50;99.90;;;;;;2674476;31;21237;31
2024/03/11 00:57:10;;;;;;;13.55;7.55;;;9.50;99.90;;;;;;2603083;54;20948;31
2024/03/11 00:59:49;;;;;;;12.60;8.38;;;9.50;99.90;;;;;;2602841;54;20416;31
2024/03/11 01:02:37;;;;;;;14.13;7.72;;;9.50;99.90;;;;;;2602873;54;20030;31
2024/03/11 01:05:23;;;;;;;12.45;7.82;;;9.40;99.90;;;;;;2603377;39;20293;31
2024/03/11 01:08:04;;;;;;;13.80;8.00;;;9.40;99.90;;;;;;2602947;54;20877;31
2024/03/11 01:10:45;;;;;;;15.85;8.65;;;9.40;99.90;;;;;;2602692;54;20026;31
2024/03/11 01:13:21;;;;;;;13.60;8.93;;;9.40;99.90;;;;;;2602903;54;20919;31
2024/03/11 01:16:00;;;;;;;15.13;7.80;;;9.40;99.90;;;;;;2602809;54;20366;31
2024/03/11 04:04:17;;;;;;;12.35;7.35;;;8.90;99.90;;;;;;2600085;54;20030;31
2024/03/11 04:06:56;;;;;;;10.65;7.10;;;8.90;99.90;;;;;;2602379;54;20027;31
2024/03/11 04:09:31;;;;;;;11.38;7.03;;;8.90;99.90;;;;;;2602559;54;20769;31
2024/03/11 04:12:14;;;;;;;13.25;7.80;;;8.90;99.90;;;;;;2602630;54;20763;31
2024/03/11 04:14:49;;;;;;;12.80;7.47;;;9.00;99.90;;;;;;2620800;46;20034;31
2024/03/11 04:17:24;;;;;;;12.32;7.80;;;9.00;99.90;;;;;;2700870;39;20478;31
2024/03/11 04:19:58;;;;;;;13.40;7.35;;;9.00;99.90;;;;;;2602385;54;20090;31
2024/03/11 04:22:41;;;;;;;11.35;7.07;;;9.10;99.90;;;;;;2602515;54;20022;31
2024/03/11 04:25:16;;;;;;;10.75;7.00;;;9.10;99.90;;;;;;2620820;47;20037;31
2024/03/11 04:27:51;;;;;;;10.45;6.35;;;9.10;99.90;;;;;;2602573;54;20846;31
2024/03/11 04:30:30;;;;;;;12.82;6.68;;;9.10;99.90;;;;;;2602500;54;20033;31
2024/03/11 04:33:06;;;;;;;9.43;6.53;;;9.20;99.90;;;;;;2602266;54;20935;31
2024/03/11 04:35:42;;;;;;;11.38;7.45;;;9.20;99.90;;;;;;2602517;54;20869;31
2024/03/11 04:38:20;;;;;;;10.03;7.03;;;9.30;99.90;;;;;;2602402;54;20897;31
2024/03/11 04:40:55;;;;;;;12.73;6.60;;;9.30;99.90;;;;;;2602507;54;20844;31
2024/03/11 04:43:30;;;;;;;10.23;6.55;;;9.30;99.90;;;;;;2602448;54;20034;31
2024/03/11 04:46:09;;;;;;;13.60;6.78;;;9.30;99.90;;;;;;2602474;54;20033;31
2024/03/11 04:48:45;;;;;;;11.93;6.47;;;9.40;99.90;;;;;;2602317;54;20029;31
2024/03/11 04:51:19;;;;;;;;;;;9.40;99.90;;;;;;2621183;47;20105;31
2024/03/11 04:53:57;;;;;;;11.32;6.97;;;9.40;99.90;;;;;;2602257;54;19935;31
2024/03/11 04:56:34;;;;;;;13.50;7.65;;;9.40;99.90;;;;;;2602367;54;20910;31
2024/03/11 04:59:12;;;;;;;12.43;7.13;;;9.50;99.90;;;;;;2602497;54;20902;31
2024/03/11 05:01:47;;;;;;;11.75;6.78;;;9.50;99.90;;;;;;2602360;54;20850;31
2024/03/11 05:04:30;;;;;;;10.75;7.00;;;9.50;99.90;;;;;;2700726;39;21315;31
2024/03/11 05:07:05;;;;;;;10.88;6.82;;;9.50;99.90;;;;;;2602421;54;20882;31
2024/03/11 05:09:46;;;;;;;10.60;7.15;;;9.50;99.90;;;;;;2700623;39;21371;31
2024/03/11 05:12:20;;;;;;;12.57;7.30;;;9.60;99.90;;;;;;2602361;54;20913;31
2024/03/11 05:14:58;;;;;;;8.85;6.60;;;9.60;99.90;;;;;;2620578;47;20037;31
2024/03/11 05:17:32;;;;;;;12.23;7.50;;;9.60;99.90;;;;;;2620656;47;20105;31
2024/03/11 05:20:11;;;;;;;11.98;7.25;;;9.60;99.90;;;;;;2602180;54;20999;31
2024/03/11 05:22:46;;;;;;;13.40;7.30;;;9.60;99.90;;;;;;2602141;54;20614;31
2024/03/11 05:25:24;;;;;;;12.80;7.50;;;9.60;99.90;;;;;;2602170;54;20034;31
2024/03/11 05:27:59;;;;;;;11.45;6.75;;;9.60;99.90;;;;;;2620751;47;20321;31
2024/03/11 05:30:34;;;;;;;11.97;7.43;;;9.60;99.90;;;;;;2602322;54;20026;31
2024/03/11 05:33:09;;;;;;;12.55;7.20;;;9.60;99.90;;;;;;2601575;54;21227;31
2024/03/11 05:35:44;;;;;;;13.40;7.68;;;9.60;99.90;;;;;;2602394;54;20030;31
2024/03/11 05:38:19;;;;;;;8.73;6.35;;;9.60;99.90;;;;;;2602865;54;20030;31
2024/03/11 05:40:57;;;;;;;14.50;8.00;;;9.60;99.90;;;;;;2621442;46;20026;31
2024/03/11 05:43:34;;;;;;;15.27;7.83;;;9.60;99.90;;;;;;2621418;46;21158;31
2024/03/11 05:49:13;;;;;;;11.10;7.15;;;9.60;99.90;;;;;;2602814;54;20730;31
2024/03/11 05:51:52;;;;;;;16.75;8.50;;;9.60;99.90;;;;;;2602934;54;20137;31
2024/03/11 05:54:49;;;;;;;14.55;8.65;;;9.60;99.90;;;;;;2607284;46;20928;31
2024/03/11 05:57:29;;;;;;;13.57;8.90;;;9.60;99.90;;;;;;2602787;54;20053;31
2024/03/11 06:00:09;;;;;;;14.07;8.38;;;9.60;99.90;;;;;;2602898;54;20031;31
2024/03/11 06:02:46;;;;;;;13.90;8.40;;;9.70;99.90;;;;;;2602787;54;20224;31
2024/03/11 06:08:20;;;;;;;33.95;10.57;;;9.70;99.90;;;;;;2602914;54;20045;31
2024/03/11 06:11:08;;;;;;;27.17;10.23;;;9.80;99.90;;;;;;2602858;54;20550;31
2024/03/11 06:13:55;;;;;;;14.88;8.43;;;9.80;99.90;;;;;;2602976;54;20273;31
2024/03/11 06:16:37;;;;;;;15.13;8.05;;;9.80;99.90;;;;;;2602742;54;20893;31
2024/03/11 06:19:16;;;;;;;13.40;8.10;;;10.00;99.90;;;;;;2602723;54;20880;31
2024/03/11 06:21:53;;;;;;;12.38;7.78;;;9.90;99.90;;;;;;2602817;54;20875;31
2024/03/11 06:24:31;;;;;;;15.95;9.25;;;9.80;99.90;;;;;;2602865;54;20896;31
2024/03/11 06:27:09;;;;;;;15.77;9.27;;;9.90;99.90;;;;;;2602999;54;20877;31
2024/03/11 06:29:53;;;;;;;15.57;8.32;;;10.00;99.90;;;;;;2602852;54;21014;31
2024/03/11 06:32:32;;;;;;;16.73;9.73;;;9.90;99.90;;;;;;2719701;39;20477;31
2024/03/11 06:35:15;;;;;;;17.20;8.25;;;10.00;99.90;;;;;;2602857;54;20987;31
2024/03/11 06:37:55;;;;;;;17.42;8.57;;;10.00;99.90;;;;;;2601890;54;20034;31
2024/03/11 06:40:32;;;;;;;15.88;8.55;;;10.00;99.90;;;;;;2602151;54;20996;31
2024/03/11 06:43:12;;;;;;;16.25;8.45;;;10.00;99.90;;;;;;2602493;54;20027;31
2024/03/11 06:45:52;;;;;;;14.75;9.00;;;10.00;99.90;;;;;;2602964;54;20880;31
2024/03/11 06:48:35;;;;;;;14.80;8.93;;;10.00;99.90;;;;;;2602618;54;20954;31
2024/03/11 06:51:11;;;;;;;17.95;10.30;;;10.00;99.90;;;;;;2612644;46;20882;31
2024/03/11 06:53:47;;;;;;;17.67;8.82;;;10.10;99.90;;;;;;2602875;54;20873;31
2024/03/11 06:56:25;;;;;;;16.05;9.00;;;10.10;99.90;;;;;;2621111;46;20863;31
2024/03/11 06:59:01;;;;;;;15.50;9.05;;;10.10;99.90;;;;;;2620968;46;20137;31
2024/03/11 07:01:43;;;;;;;15.52;8.73;;;10.10;99.90;;;;;;2602521;54;20104;31
2024/03/11 07:04:22;;;;;;;14.27;8.88;;;10.10;99.90;;;;;;2620942;46;20856;31
2024/03/11 07:07:08;;;;;;;20.20;9.02;;;10.10;99.90;;;;;;2602630;54;20719;31
2024/03/11 07:09:44;;;;;;;14.70;8.38;;;10.10;99.90;;;;;;2602862;54;20026;31
2024/03/11 07:12:23;;;;;;;16.77;8.73;;;10.10;99.90;;;;;;2602595;54;20049;31
2024/03/11 07:15:02;;;;;;;18.27;8.43;;;10.20;99.90;;;;;;2601886;54;20872;31
2024/03/11 07:17:46;;;;;;;19.13;9.35;;;10.20;99.90;;;;;;2602715;54;20843;31
2024/03/11 07:20:23;;;;;;;14.45;8.82;;;10.20;99.90;;;;;;2602652;54;20026;31
2024/03/11 07:23:02;;;;;;;16.05;9.85;;;10.20;99.90;;;;;;2601904;54;20774;31
2024/03/11 07:25:38;;;;;;;14.25;8.32;;;10.30;99.90;;;;;;2620783;46;21912;31
2024/03/11 07:28:14;;;;;;;19.17;10.30;;;10.30;99.90;;;;;;2602119;54;20901;31
2024/03/11 07:30:53;;;;;;;17.30;9.25;;;10.30;99.90;;;;;;2602545;54;20961;31
2024/03/11 07:33:31;;;;;;;16.98;8.90;;;10.40;99.90;;;;;;2620947;46;22020;31
2024/03/11 07:36:15;;;;;;;17.85;10.20;;;10.40;99.90;;;;;;2602507;54;20034;31
2024/03/11 07:38:52;;;;;;;17.25;9.82;;;10.50;99.90;;;;;;2602318;46;20038;31
2024/03/11 07:41:30;;;;;;;15.95;9.43;;;10.50;99.90;;;;;;2621500;46;20031;31
2024/03/11 07:44:08;;;;;;;15.40;9.00;;;10.50;99.90;;;;;;2621011;46;20861;31
2024/03/11 07:46:50;;;;;;;17.50;9.50;;;10.60;99.90;;;;;;2602704;54;21189;31
2024/03/11 07:49:26;;;;;;;15.95;8.75;;;10.60;99.90;;;;;;2602768;54;20889;31
2024/03/11 07:52:05;;;;;;;16.37;10.03;;;10.60;99.90;;;;;;2602482;54;20030;31
2024/03/11 07:54:43;;;;;;;19.75;9.80;;;10.70;99.90;;;;;;2602646;54;20906;31
2024/03/11 07:57:19;;;;;;;14.35;8.32;;;10.70;99.90;;;;;;2602445;54;20026;31
2024/03/11 08:00:05;;;;;;;15.02;9.05;;;10.80;99.90;;;;;;2602403;54;20029;31
2024/03/11 08:02:40;;;;;;;16.00;9.23;;;10.80;99.90;;;;;;2602640;54;20030;31
2024/03/11 08:05:19;;;;;;;15.52;8.63;;;10.90;99.90;;;;;;2620878;46;20136;31
2024/03/11 08:07:56;;;;;;;16.17;8.77;;;10.90;99.90;;;;;;2602487;54;20987;31
2024/03/11 08:10:35;;;;;;;14.60;8.10;;;11.00;99.90;;;;;;2602633;54;21155;31
2024/03/11 08:13:11;;;;;;;16.97;9.17;;;11.00;99.70;;;;;;2602498;54;20093;31
2024/03/11 08:15:51;;;;;;;14.38;9.18;;;11.10;98.80;;;;;;2601766;54;21184;31
2024/03/11 08:18:30;;;;;;;34.35;18.33;;;11.10;98.70;;;;;;2700768;39;21312;31
2024/03/11 08:23:41;;;;;;;42.55;25.08;;;11.20;96.70;;;;;;2621231;46;20046;31
2024/03/11 08:26:44;;;;;;;43.75;31.05;;;11.30;97.30;;;;;;2602360;54;20894;31
2024/03/11 08:29:20;;;;;;;21.17;14.80;;;11.30;95.50;;;;;;2602335;54;20030;31
2024/03/11 08:31:57;;;;;;;19.25;11.13;;;11.40;94.00;;;;;;2620860;47;20030;31
2024/03/11 08:34:35;;;;;;;17.77;11.40;;;11.50;92.80;;;;;;2602449;54;20060;31
2024/03/11 08:37:14;;;;;;;14.27;9.80;;;11.50;92.90;;;;;;2602375;54;20039;31
2024/03/11 08:39:49;;;;;;;17.98;9.45;;;11.60;91.70;;;;;;2615313;47;20057;31
2024/03/11 08:42:30;;;;;;;13.75;8.80;;;11.70;89.90;;;;;;2621057;47;20033;31
2024/03/11 08:45:11;;;;;;;14.15;8.05;;;11.90;87.90;;;;;;2602635;54;20057;31
2024/03/11 08:47:51;;;;;;;13.20;8.18;;;12.00;80.90;;;;;;2602444;54;20034;31
2024/03/11 08:50:33;;;;;;;16.20;9.40;;;12.10;78.20;;;;;;2602415;54;20475;31
2024/03/11 08:53:09;;;;;;;14.05;8.88;;;12.30;73.60;;;;;;2602471;54;20077;31
2024/03/11 08:55:45;;;;;;;21.38;10.15;;;12.40;70.40;;;;;;2602324;54;20105;31
2024/03/11 08:58:25;;;;;;;15.13;8.70;;;12.60;67.30;;;;;;2621008;47;20030;31
2024/03/11 09:01:05;;;;;;;15.55;8.95;;;12.70;57.70;;;;;;2700909;39;21349;31
2024/03/11 09:03:55;;;;;;;15.27;9.23;;;12.80;54.90;;;;;;2601788;54;20926;31
2024/03/11 09:06:41;;;;;;;20.92;10.40;;;12.90;50.00;;;;;;2602401;54;20826;31
2024/03/11 09:15:49;;;;;;;14.80;9.43;;;13.30;35.50;;;;;;2602838;54;20858;31
2024/03/11 09:21:29;;;;;;;15.02;9.23;;;13.60;21.50;;;;;;2602346;54;20936;31
2024/03/11 09:24:20;;;;;;;15.27;9.75;;;13.80;18.90;;;;;;2602440;54;20057;31
2024/03/11 09:27:03;;;;;;;14.43;9.70;;;13.80;11.00;;;;;;2602503;54;20034;31
2024/03/11 09:29:41;;;;;;;15.93;10.60;;;13.90;7.30;;;;;;2603272;54;20877;31
2024/03/11 09:32:26;;;;;;;15.57;11.10;;;13.90;1.00;;;;;;2621610;46;20033;31
2024/03/11 09:35:14;;;;;;;33.22;15.63;;;13.90;1.00;;;;;;2603449;54;20032;31
2024/03/11 09:47:33;;;;;;;;;;;;;;;;;;;;;
2024/03/11 10:03:56;;;;;;;;;;;;;;;;;;;;;
2024/03/11 10:37:29;;;;;;;;;;;;;;;;;;;;;
2024/03/11 10:56:40;;;;;;;43.22;28.90;;;14.90;1.00;;;;;;2602796;54;20030;31
2024/03/11 11:02:41;;;;;;;13.30;8.00;;;14.90;1.00;;;;;;2603230;54;20826;31
2024/03/11 11:05:21;;;;;;;13.53;8.10;;;14.90;1.00;;;;;;2602969;54;20026;31
2024/03/11 11:07:59;;;;;;;19.95;9.80;;;15.00;1.00;;;;;;2603044;54;20936;31
2024/03/11 11:10:40;;;;;;;18.30;9.90;;;15.00;1.00;;;;;;2603024;54;20846;31
2024/03/11 11:13:49;;;;;;;17.55;8.10;;;14.90;1.00;;;;;;2602915;54;20110;31
2024/03/11 11:16:36;;;;;;;22.92;11.18;;;15.00;1.00;;;;;;2602793;54;20073;31
2024/03/11 11:27:51;;;;;;;16.45;9.07;;;15.10;1.00;;;;;;2603231;54;20048;31
2024/03/11 11:30:33;;;;;;;19.02;11.55;;;15.10;1.00;;;;;;2603039;54;20739;31
2024/03/11 11:33:13;;;;;;;12.25;8.85;;;15.10;1.00;;;;;;2601862;54;20849;31
2024/03/11 11:38:47;;;;;;;13.57;8.32;;;15.10;1.00;;;;;;2602252;54;20889;31
2024/03/11 11:41:54;;;;;;;12.25;6.80;;;15.20;1.00;;;;;;2621285;46;20081;31
2024/03/11 11:44:59;;;;;;;18.55;8.55;;;15.20;1.00;;;;;;2621642;46;20106;31
2024/03/11 11:51:26;;;;;;;11.63;8.90;;;15.40;1.00;;;;;;2602432;54;20030;31
2024/03/11 11:54:46;;;;;;;12.93;7.43;;;15.40;1.00;;;;;;2602970;54;20893;31
2024/03/11 11:57:25;;;;;;;16.98;7.95;;;15.40;1.00;;;;;;2602907;54;20030;31
2024/03/11 12:02:51;;;;;;;17.15;7.90;;;15.50;1.00;;;;;;2602867;54;20745;31
2024/03/11 12:05:25;;;;;;;16.10;7.55;;;15.60;1.00;;;;;;2602794;54;20102;31
2024/03/11 12:08:02;;;;;;;15.10;7.00;;;15.60;1.00;;;;;;2602751;54;20033;31
2024/03/11 12:10:49;;;;;;;8.50;6.70;;;15.50;1.00;;;;;;2602562;54;20026;31
2024/03/11 12:13:28;;;;;;;17.45;7.25;;;15.50;1.00;;;;;;2621447;46;20908;31
2024/03/11 12:16:09;;;;;;;15.23;6.70;;;15.60;1.00;;;;;;2602696;54;20033;31
2024/03/11 12:19:07;;;;;;;9.57;6.30;;;15.60;1.00;;;;;;2602700;54;20140;31
2024/03/11 12:21:53;;;;;;;12.80;5.93;;;15.50;1.00;;;;;;2602693;54;20027;31
2024/03/11 12:24:33;;;;;;;12.00;5.80;;;15.60;1.00;;;;;;2602780;54;20027;31
2024/03/11 12:27:13;;;;;;;22.65;9.77;;;15.60;1.00;;;;;;2701041;39;21313;31
2024/03/11 12:30:05;;;;;;;15.88;8.30;;;15.50;1.00;;;;;;2602834;54;20849;31
2024/03/11 12:33:00;;;;;;;15.40;8.15;;;15.50;1.00;;;;;;2602698;54;20933;31
2024/03/11 12:35:50;;;;;;;14.43;8.25;;;15.40;1.00;;;;;;2602626;54;20033;31
2024/03/11 12:38:32;;;;;;;26.77;12.60;;;15.30;1.00;;;;;;2701219;39;21291;31
2024/03/11 12:41:25;;;;;;;15.90;8.75;;;15.30;1.00;;;;;;2602888;54;20030;31
2024/03/11 12:44:16;;;;;;;14.10;8.50;;;15.20;1.00;;;;;;2620779;47;20111;31
2024/03/11 12:47:24;;;;;;;;;;;;;;;;;;;;;
2024/03/11 12:50:15;;;;;;;23.93;11.00;;;15.10;1.00;;;;;;2603488;54;20054;31
2024/03/11 12:52:53;;;;;;;19.65;9.60;;;15.10;1.00;;;;;;2603423;54;20534;31
2024/03/11 12:55:32;;;;;;;24.25;11.40;;;15.10;1.00;;;;;;2603358;54;21502;31
2024/03/11 12:58:16;;;;;;;20.42;11.30;;;15.00;1.00;;;;;;2603329;54;20042;31
2024/03/11 13:01:01;;;;;;;20.57;10.67;;;15.00;1.00;;;;;;2603347;54;20933;31
2024/03/11 13:03:39;;;;;;;10.65;7.35;;;15.00;1.00;;;;;;2702023;39;22353;31
2024/03/11 13:06:18;;;;;;;14.53;8.00;;;15.00;1.00;;;;;;2603340;54;20540;31
2024/03/11 13:08:55;;;;;;;16.15;7.68;;;15.00;1.00;;;;;;2603410;54;20089;31
2024/03/11 13:11:31;;;;;;;15.63;10.93;;;14.90;1.00;;;;;;2603447;54;20054;31
2024/03/11 13:14:07;;;;;;;16.63;12.33;;;14.90;1.00;;;;;;2603404;54;20842;31
2024/03/11 13:16:48;;;;;;;15.23;9.32;;;14.90;1.00;;;;;;2603350;54;20038;31
2024/03/11 13:19:25;;;;;;;17.02;9.13;;;14.90;1.00;;;;;;2603443;54;20081;31
2024/03/11 13:22:17;;;;;;;22.85;11.50;;;14.90;1.00;;;;;;2603246;54;20867;31
2024/03/11 13:24:53;;;;;;;19.80;10.43;;;14.90;1.00;;;;;;2603497;54;20026;31
2024/03/11 13:27:27;;;;;;;14.82;9.73;;;14.90;1.00;;;;;;2621357;46;22377;31
2024/03/11 13:30:02;;;;;;;19.40;9.60;;;15.00;1.00;;;;;;2603430;54;20965;31
2024/03/11 13:32:43;;;;;;;13.00;8.23;;;15.00;1.00;;;;;;2603171;54;20038;31
2024/03/11 13:35:18;;;;;;;12.95;8.05;;;15.10;1.00;;;;;;2603474;54;20911;31
2024/03/11 13:37:56;;;;;;;13.45;8.00;;;15.20;1.00;;;;;;2603467;54;20031;31
2024/03/11 13:40:30;;;;;;;10.75;7.45;;;15.20;1.00;;;;;;2603474;54;20027;31
2024/03/11 13:43:09;;;;;;;;;;;15.30;1.00;;;;;;2603684;54;20058;31
2024/03/11 13:45:50;;;;;;;14.90;7.65;;;15.40;1.00;;;;;;2603248;54;20791;31
2024/03/11 13:48:30;;;;;;;16.00;8.20;;;15.40;1.00;;;;;;2603315;54;20027;31
2024/03/11 13:51:10;;;;;;;13.73;8.15;;;15.50;1.00;;;;;;2603222;54;20050;31
2024/03/11 13:53:47;;;;;;;12.75;7.13;;;15.60;1.00;;;;;;2603271;54;20035;31
2024/03/11 13:56:21;;;;;;;11.73;8.15;;;15.70;1.00;;;;;;2602974;54;20104;31
2024/03/11 13:59:00;;;;;;;11.20;6.68;;;15.70;1.00;;;;;;2603219;54;20037;31
2024/03/11 14:01:36;;;;;;;14.90;7.10;;;15.80;1.00;;;;;;2602957;54;20042;31
2024/03/11 14:04:13;;;;;;;10.45;7.50;;;15.90;1.00;;;;;;2603401;54;20806;31
2024/03/11 14:06:51;;;;;;;14.13;7.60;;;15.90;1.00;;;;;;2603310;54;20026;31
2024/03/11 14:09:27;;;;;;;11.77;7.68;;;16.00;1.00;;;;;;2621278;46;20781;31
2024/03/11 14:12:13;;;;;;;10.25;6.90;;;16.00;1.00;;;;;;2603195;54;20948;31
2024/03/11 14:15:01;;;;;;;16.45;7.40;;;16.00;1.00;;;;;;2602965;54;20101;31
2024/03/11 14:17:36;;;;;;;10.40;7.15;;;16.10;99.90;;;;;;2603243;54;20867;31
2024/03/11 14:20:20;;;;;;;11.90;7.80;;;16.10;99.90;;;;;;2603257;54;20065;31
2024/03/11 14:22:58;;;;;;;12.85;7.20;;;16.10;99.90;;;;;;2603357;54;20893;31
2024/03/11 14:25:33;;;;;;;12.63;7.47;;;16.00;99.90;;;;;;2602974;54;21135;31
2024/03/11 14:28:11;;;;;;;12.60;6.57;;;16.00;99.90;;;;;;2621879;46;20085;31
2024/03/11 14:30:46;;;;;;;15.00;8.00;;;16.00;99.90;;;;;;2603285;54;20042;31
2024/03/11 14:33:22;;;;;;;16.40;7.85;;;16.00;99.90;;;;;;2603488;54;20034;31
2024/03/11 14:35:58;;;;;;;20.77;13.00;;;15.90;99.90;;;;;;2622020;46;20854;31
2024/03/11 14:38:38;;;;;;;28.92;17.33;;;15.90;99.90;;;;;;2602973;54;20030;31
2024/03/11 14:41:14;;;;;;;25.80;15.57;;;15.90;99.90;;;;;;2603174;54;20849;31
2024/03/11 14:43:50;;;;;;;17.77;9.00;;;15.90;99.90;;;;;;2603259;54;20026;31
2024/03/11 14:46:26;;;;;;;12.05;6.85;;;15.90;99.90;;;;;;2603111;54;20036;31
2024/03/11 14:49:02;;;;;;;10.63;6.77;;;16.00;99.90;;;;;;2602978;54;20104;31
2024/03/11 14:51:40;;;;;;;;;;;16.00;99.90;;;;;;2603109;54;20947;31
2024/03/11 14:54:25;;;;;;;11.05;6.75;;;15.90;99.90;;;;;;2602784;54;19942;31
2024/03/11 14:57:02;;;;;;;10.95;6.45;;;15.90;99.90;;;;;;2603003;54;20031;31
2024/03/11 14:59:38;;;;;;;10.40;6.70;;;15.90;99.90;;;;;;2603139;54;20892;31
2024/03/11 15:02:15;;;;;;;11.32;6.88;;;15.90;99.90;;;;;;2603110;54;22387;31
2024/03/11 15:04:51;;;;;;;9.90;6.40;;;15.90;99.90;;;;;;2603033;54;20038;31
2024/03/11 15:07:27;;;;;;;14.15;8.95;;;15.90;99.90;;;;;;2602754;54;20075;31
2024/03/11 15:10:07;;;;;;;18.20;12.97;;;15.90;99.90;;;;;;2621697;46;20881;31
2024/03/11 15:12:44;;;;;;;15.23;10.07;;;15.90;99.90;;;;;;2603024;54;20242;31
2024/03/11 15:15:20;;;;;;;17.45;11.50;;;15.90;99.90;;;;;;2603041;54;20054;31
2024/03/11 15:17:58;;;;;;;17.70;12.38;;;15.90;99.90;;;;;;2603118;54;20057;31
2024/03/11 15:20:34;;;;;;;15.95;8.95;;;15.90;99.90;;;;;;2602903;54;20030;31
2024/03/11 15:23:13;;;;;;;10.13;7.68;;;15.90;99.90;;;;;;2602752;54;20033;31
2024/03/11 15:25:53;;;;;;;12.37;9.13;;;15.90;99.90;;;;;;2621339;46;20053;31
2024/03/11 15:28:29;;;;;;;23.85;14.55;;;15.90;99.90;;;;;;2602827;54;20026;31
2024/03/11 15:31:08;;;;;;;19.00;12.13;;;15.90;99.90;;;;;;2603130;54;20030;31
2024/03/11 15:33:41;;;;;;;18.60;12.37;;;15.80;99.90;;;;;;2603098;54;20026;31
2024/03/11 15:36:17;;;;;;;15.65;9.63;;;15.80;99.90;;;;;;2602855;54;20033;31
2024/03/11 15:38:53;;;;;;;21.40;13.20;;;15.80;99.90;;;;;;2602957;54;20743;31
2024/03/11 15:41:34;;;;;;;20.17;11.52;;;15.80;99.90;;;;;;2603067;54;21090;31
2024/03/11 15:44:10;;;;;;;14.43;7.85;;;15.80;99.90;;;;;;2602918;54;20027;31
2024/03/11 15:46:47;;;;;;;;;;;15.80;99.90;;;;;;2603111;54;20035;31
2024/03/11 15:49:23;;;;;;;;;;;15.80;99.90;;;;;;2621491;46;20017;31
2024/03/11 15:52:06;;;;;;;10.43;6.57;;;15.80;99.90;;;;;;2621380;46;19934;31
2024/03/11 15:54:43;;;;;;;9.23;5.60;;;15.80;99.90;;;;;;2602841;54;20885;31
2024/03/11 15:57:22;;;;;;;16.80;10.30;;;15.70;99.90;;;;;;2602903;54;20772;31
2024/03/11 15:59:57;;;;;;;17.75;9.88;;;15.70;99.90;;;;;;2602878;54;20243;31
2024/03/11 16:02:32;;;;;;;16.80;10.23;;;15.70;99.90;;;;;;2602944;54;20030;31
2024/03/11 16:05:15;;;;;;;40.77;25.20;;;15.70;99.90;;;;;;2602830;54;20089;31
2024/03/11 16:07:49;;;;;;;20.48;11.93;;;15.70;99.90;;;;;;2620940;46;20053;31
2024/03/11 16:10:24;;;;;;;29.57;17.23;;;15.70;99.90;;;;;;2701252;39;21319;31
2024/03/11 16:12:59;;;;;;;19.30;10.30;;;15.70;99.90;;;;;;2602717;54;20037;31
2024/03/11 16:15:38;;;;;;;14.75;8.70;;;15.60;99.90;;;;;;2602680;54;21453;31
2024/03/11 16:18:12;;;;;;;13.43;7.03;;;15.60;99.90;;;;;;2602903;54;20862;31
2024/03/11 16:20:49;;;;;;;14.47;6.80;;;15.60;99.90;;;;;;2701098;39;21353;31
2024/03/11 16:23:30;;;;;;;13.75;6.82;;;15.60;99.90;;;;;;2602801;54;21646;31
2024/03/11 16:26:04;;;;;;;11.90;6.90;;;15.50;99.90;;;;;;2602784;54;20027;31
2024/03/11 16:28:42;;;;;;;11.20;6.10;;;15.50;1.00;;;;;;2602716;54;20846;31
2024/03/11 16:31:18;;;;;;;9.00;6.60;;;15.50;1.00;;;;;;2602486;54;20089;31
2024/03/11 16:33:55;;;;;;;7.65;5.40;;;15.40;1.00;;;;;;2701185;39;21283;31
2024/03/11 16:36:28;;;;;;;7.03;5.10;;;15.40;1.00;;;;;;2602595;54;20262;31
2024/03/11 16:39:08;;;;;;;11.85;6.75;;;15.40;1.00;;;;;;2602689;54;20969;31
2024/03/11 16:41:40;;;;;;;13.45;8.13;;;15.30;1.00;;;;;;2602628;54;20555;31
2024/03/11 16:44:21;;;;;;;14.13;10.20;;;15.30;1.00;;;;;;2602428;54;20769;31
2024/03/11 16:46:54;;;;;;;15.98;9.70;;;15.20;1.00;;;;;;2620973;47;20912;31
2024/03/11 16:49:29;;;;;;;17.35;9.32;;;15.20;1.00;;;;;;2602673;54;22364;31
2024/03/11 16:52:04;;;;;;;18.23;10.43;;;15.10;1.00;;;;;;2602723;54;20761;31
2024/03/11 16:54:40;;;;;;;17.80;10.35;;;15.10;1.00;;;;;;2602740;54;20316;31
2024/03/11 16:57:11;;;;;;;16.75;10.40;;;15.00;1.00;;;;;;2621069;47;20027;31
2024/03/11 16:59:49;;;;;;;15.18;8.75;;;15.00;1.00;;;;;;2602607;54;20053;31
2024/03/11 17:02:28;;;;;;;13.90;9.23;;;15.00;1.00;;;;;;2602660;54;20927;31
2024/03/11 17:05:06;;;;;;;14.67;7.93;;;14.90;1.00;;;;;;2602613;54;20985;31
2024/03/11 17:07:41;;;;;;;12.90;8.55;;;14.90;1.00;;;;;;2621016;47;20027;31
2024/03/11 17:10:19;;;;;;;14.38;8.63;;;14.80;1.00;;;;;;2602562;54;20035;31
2024/03/11 17:12:52;;;;;;;11.93;8.05;;;14.80;1.00;;;;;;2602634;54;20030;31
2024/03/11 17:15:30;;;;;;;11.90;6.70;;;14.80;1.00;;;;;;2602654;54;20033;31
2024/03/11 17:18:06;;;;;;;12.33;7.73;;;14.70;1.00;;;;;;2620835;46;20052;31
2024/03/11 17:20:44;;;;;;;16.00;8.90;;;14.70;1.00;;;;;;2602529;54;20031;31
2024/03/11 17:23:22;;;;;;;14.55;9.10;;;14.70;1.00;;;;;;2620861;47;20856;31
2024/03/11 17:25:57;;;;;;;25.23;15.00;;;14.60;1.00;;;;;;2602671;54;21010;31
2024/03/11 17:28:30;;;;;;;21.20;12.63;;;14.60;1.00;;;;;;2620998;47;20042;31
2024/03/11 17:31:11;;;;;;;17.13;12.20;;;14.50;1.00;;;;;;2602937;54;20851;31
2024/03/11 17:33:47;;;;;;;21.20;14.77;;;14.40;1.00;;;;;;2621997;46;20247;31
2024/03/11 17:36:22;;;;;;;18.10;12.65;;;14.30;15.90;;;;;;2603479;54;20769;31
2024/03/11 17:38:56;;;;;;;21.90;15.57;;;14.20;25.70;;;;;;2603385;54;20738;31
2024/03/11 17:41:30;;;;;;;22.77;15.00;;;14.20;34.50;;;;;;2603451;54;20031;31
2024/03/11 17:44:03;;;;;;;22.60;16.65;;;14.10;41.60;;;;;;2621867;46;20034;31
2024/03/11 17:46:42;;;;;;;23.05;15.80;;;14.00;45.50;;;;;;2603435;54;20104;31
2024/03/11 17:49:12;;;;;;;21.70;15.25;;;14.00;49.60;;;;;;2621629;46;22382;31
2024/03/11 17:51:47;;;;;;;24.60;17.60;;;13.90;54.80;;;;;;2603418;54;22395;31
2024/03/11 17:54:24;;;;;;;28.33;18.70;;;13.80;57.20;;;;;;2603248;54;20834;31
2024/03/11 17:56:59;;;;;;;28.23;17.63;;;13.80;61.00;;;;;;2603426;54;20026;31
2024/03/11 17:59:37;;;;;;;29.42;17.90;;;13.70;63.60;;;;;;2602951;54;20026;31
2024/03/11 18:02:14;;;;;;;24.60;16.43;;;13.60;66.30;;;;;;2603248;54;20034;31
2024/03/11 18:04:49;;;;;;;27.60;18.20;;;13.60;71.20;;;;;;2603313;54;20106;31
2024/03/11 18:07:19;;;;;;;24.43;16.40;;;13.40;74.40;;;;;;2621510;46;22371;31
2024/03/11 18:09:54;;;;;;;25.73;18.30;;;13.40;77.70;;;;;;2621674;46;20117;31
2024/03/11 18:12:27;;;;;;;23.33;15.80;;;13.40;79.30;;;;;;2603353;54;20905;31
2024/03/11 18:15:05;;;;;;;29.52;18.60;;;13.30;81.00;;;;;;2603167;54;20113;31
2024/03/11 18:17:40;;;;;;;24.30;15.73;;;13.30;81.70;;;;;;2603351;54;20741;31
2024/03/11 18:20:22;;;;;;;23.30;16.90;;;13.20;82.20;;;;;;2603332;54;20034;31
2024/03/11 18:22:58;;;;;;;26.65;17.45;;;13.20;85.40;;;;;;2603055;54;20027;31
2024/03/11 18:25:33;;;;;;;25.67;17.15;;;13.10;86.90;;;;;;2603153;54;20027;31
2024/03/11 18:28:09;;;;;;;28.43;17.87;;;13.10;87.10;;;;;;2603372;54;20826;31
2024/03/11 18:30:41;;;;;;;25.02;17.85;;;13.00;87.60;;;;;;2603070;54;20089;31
2024/03/11 18:33:20;;;;;;;24.95;16.70;;;13.00;88.10;;;;;;2602411;54;20056;31